Tiempo atmosférico en la estación meteorológica de Albarracín, Teruel (1130 m.)



Fecha
DESCASC
Temp. máxima en grados centígrados (hora)
DESCASC
Temp. mínima en grados centígrados (hora)
DESCASC
Temp. media en grados centígrados
DESCASC
Racha de viento máxima en m/sg (hora)
DESCASC
Velocidad máxima media en intervalos de 10 minutos(hora)
DESCASC
Precipitaciones diarias en mm
DESCASC
Precipitaciones de 00:00 a 06:00 en mm
DESCASC
Precipitaciones de 06:00 a 12:00 en mm
DESCASC
Precipitaciones de 12:00 a 18:00 en mm
DESCASC
Precipitaciones de 18:00 a 24:00 en mm
DESCASC
18-08-2019 33.6 (16:50) 16.4 (07:30) 25 10.83 (12:40) 5.83 (14:30) 0 0 0 0 0
17-08-2019 34.1 (17:00) 16.2 (07:40) 25.1 11.11 (14:00) 4.72 (12:10) 0 0 0 0 0
16-08-2019 32.6 (17:40) 13.8 (08:00) 23.2 11.67 (16:20) 5.28 (13:40) 0 0 0 0 0
15-08-2019 30.9 (16:10) 12.1 (00:00) 21.5 7.78 (19:20) 5 (21:10) 0 0 0 0 0
14-08-2019 28.8 (18:20) 9.7 (00:00) 19.2 7.78 (15:50) 3.89 (09:00) 0 0 0 0 0
13-08-2019 24.9 (17:20) 11 (00:00) 17.9 13.33 (13:50) 4.44 (14:00) 1.8 0 0 1.8 0
12-08-2019 23.7 (17:00) 12.1 (00:00) 17.9 11.39 (20:10) 7.5 (19:50) 0 0 0 0 0
11-08-2019 29.9 (16:10) 18.2 (00:00) 24.1 9.17 (14:20) 5.28 (15:00) 0 0 0 0 0
10-08-2019 32.1 (16:50) 14.6 (00:00) 23.3 11.11 (15:50) 5.56 (15:40) 0 0 0 0 0
09-08-2019 32.4 (16:00) 14.9 (00:00) 23.7 11.67 (14:10) 5 (17:00) 0 0 0 0 0
08-08-2019 32.5 (17:00) 14.3 (00:00) 23.4 9.72 (16:10) 4.72 (15:20) 0 0 0 0 0
07-08-2019 28.6 (15:40) 20.8 (00:00) 24.7 6.94 (14:20) 4.17 (03:00) 0 0 0 0 0
06-08-2019 33.6 (15:50) 16.4 (00:00) 25 9.17 (13:50) 4.72 (15:40) 0 0 0 0 0
05-08-2019 34.3 (17:30) 15.6 (00:00) 24.9 11.11 (14:20) 5.56 (15:30) 0 0 0 0 0
04-08-2019 33.3 (14:20) 17.5 (00:00) 25.4 10.83 (15:10) 5.28 (16:10) 0 0 0 0 0
03-08-2019 33.4 (17:30) 14.7 (00:00) 24.1 9.17 (13:20) 5.83 (13:30) 0 0 0 0 0
02-08-2019 33.4 (18:10) 12.9 (00:00) 23.2 7.5 (20:20) 3.89 (19:00) 0 0 0 0 0
01-08-2019 31.8 (16:20) 13.7 (00:00) 22.7 10.28 (09:10) 5.28 (09:10) 0 0 0 0 0
31-07-2019 27.1 (16:50) 11 (00:00) 19.1 11.39 (18:30) 7.22 (18:20) 0 0 0 0 0
30-07-2019 28 (18:00) 10.4 (00:00) 19.2 7.5 (19:00) 4.17 (19:00) 0 0 0 0 0
29-07-2019 30.5 (16:40) 11.5 (00:00) 21 8.89 (15:50) 4.72 (23:40) 0 0 0 0 0
28-07-2019 25.9 (18:00) 9.2 (00:00) 17.5 7.5 (16:50) 4.17 (11:50) 0 0 0 0 0
27-07-2019 25.3 (15:30) 11.1 (00:00) 18.2 11.67 (14:50) 6.94 (20:40) 0 0 0 0 0
26-07-2019 29.1 (18:30) 17.2 (00:00) 23.2 7.78 (18:10) 4.17 (14:40) 0 0 0 0 0
25-07-2019 33.2 (15:10) 19.3 (00:00) 26.3 11.94 (20:20) 7.22 (21:40) 0 0 0 0 0
24-07-2019 33.2 (16:30) 18.3 (00:00) 25.8 11.39 (18:50) 6.11 (18:20) 0 0 0 0 0

Gráficas

Temp. máximas Temp. mínimas Temp. medias Precipitaciones Rachas de viento máximas Velocidades máximas media en intervalos de 10 minutos

Datos horarios

Fecha y hora oficial Temperatura (ºC) Velocidad del viento (km/h) Dirección del viento Racha (km/h) Dirección de racha Precipitación (mm) Presión (hPa) Tendencia (hPa) Humedad (%)
2019-08-22 23:00:00 18.8 4 Norte 17 Norte 0 -- -- 65
2019-08-22 22:00:00 20.2 8 Noroeste 14 Noroeste 0 -- -- 57
2019-08-22 21:00:00 21.9 4 Noroeste 10 Norte 0 -- -- 39
2019-08-22 20:00:00 24.9 6 Norte 12 Norte 0 -- -- 34
2019-08-22 19:00:00 25.9 8 Norte 18 Norte 0 -- -- 33
2019-08-22 18:00:00 26 9 Norte 21 Norte 0 -- -- 37
2019-08-22 17:00:00 25.9 8 Norte 20 Norte 0 -- -- 37
2019-08-22 16:00:00 26 9 Nordeste 19 Nordeste 0 -- -- 43
2019-08-22 15:00:00 25 8 Norte 22 Norte 0 -- -- 44
2019-08-22 14:00:00 24.4 6 Nordeste 22 Norte 0 -- -- 46
2019-08-22 13:00:00 23.4 5 Norte 15 Norte 0 -- -- 49
2019-08-22 12:00:00 22.4 4 Sudeste 10 Sudeste 0 -- -- 51
2019-08-22 11:00:00 19.2 6 Este 16 Este 0.2 -- -- 67
2019-08-22 10:00:00 15.4 10 Este 21 Este 0 -- -- 81
2019-08-22 09:00:00 11.8 9 Este 19 Este 0 -- -- 91
2019-08-22 08:00:00 9.7 3 Sudeste 12 Este 0 -- -- 95
2019-08-22 07:00:00 9.8 2 Nordeste 13 Este 0 -- -- 93
2019-08-22 06:00:00 10.5 8 Este 15 Este 0 -- -- 93
2019-08-22 05:00:00 10.4 2 Oeste 8 Este 0 -- -- 93
2019-08-22 04:00:00 11.1 2 Oeste 10 Sudeste 0 -- -- 92
2019-08-22 03:00:00 12 5 Sudeste 10 Sudeste 0 -- -- 92
2019-08-22 02:00:00 12.1 2 Sur 4 Sudoeste 0 -- -- 92
2019-08-22 01:00:00 12.9 0 Calma 6 Sur 0 -- -- 89
2019-08-22 00:00:00 14.1 3 Sudoeste 15 Oeste 0 -- -- 86
2019-08-21 23:00:00 14.4 9 Oeste 15 Sur 0 -- -- 82
2019-08-21 22:00:00 14 6 Sudeste 22 Sudeste 0 -- -- 84
2019-08-21 21:00:00 14 3 Este 12 Oeste 0 -- -- 88
2019-08-21 20:00:00 13.8 5 Sur 35 Noroeste 1.8 -- -- 89
2019-08-21 19:00:00 15.8 23 Noroeste 45 Noroeste 0 -- -- 79
2019-08-21 18:00:00 17.7 5 Nordeste 12 Oeste 0.6 -- -- 83
2019-08-21 17:00:00 16.5 7 Oeste 18 Sudeste 0.2 -- -- 83
2019-08-21 16:00:00 17.9 8 Este 48 Oeste 0.6 -- -- 74
2019-08-21 15:00:00 25.2 12 Sudeste 26 Sur 0 -- -- 50
2019-08-21 14:00:00 24.1 12 Sudeste 25 Sudeste 0 -- -- 58
2019-08-21 13:00:00 21.3 9 Sur 24 Sudeste 0 -- -- 67
2019-08-21 12:00:00 19.2 10 Sudeste 21 Sudeste 0 -- -- 75
2019-08-21 11:00:00 18.1 12 Sudeste 21 Sudeste 0 -- -- 80
2019-08-21 10:00:00 17.8 10 Sudeste 16 Sudeste 0 -- -- 82
2019-08-21 09:00:00 16.8 0 Calma 5 Norte 0 -- -- 81
2019-08-21 08:00:00 16 3 Sudeste 4 Sur 0 -- -- 84
2019-08-21 07:00:00 15.6 0 Calma 9 Sudeste 0 -- -- 85
2019-08-21 06:00:00 15.3 0 Calma 5 Sudeste 0 -- -- 83
2019-08-21 05:00:00 16.2 0 Calma 5 Norte 0 -- -- 79
2019-08-21 04:00:00 16.6 3 Norte 5 Norte 0 -- -- 78
2019-08-21 03:00:00 16.7 0 Calma 9 Este 0 -- -- 78
2019-08-21 02:00:00 16.7 3 Norte 12 Norte 0 -- -- 80
2019-08-21 01:00:00 16.9 4 Nordeste 8 Norte 0 -- -- 84
2019-08-21 00:00:00 16.8 5 Norte 9 Norte 0 -- -- 84
2019-08-20 23:00:00 16.9 5 Norte 10 Norte 0 -- -- 83
2019-08-20 22:00:00 16.9 8 Nordeste 17 Noroeste 0 -- -- 83
2019-08-20 21:00:00 17.2 11 Noroeste 24 Noroeste 0 -- -- 81
2019-08-20 20:00:00 18.5 7 Norte 19 Norte 0 -- -- 75
2019-08-20 19:00:00 18.7 9 Noroeste 21 Noroeste 0 -- -- 71
2019-08-20 18:00:00 18.7 12 Noroeste 24 Noroeste 0 -- -- 71
2019-08-20 17:00:00 18.2 12 Norte 30 Noroeste 0 -- -- 72
2019-08-20 16:00:00 17.5 14 Norte 28 Noroeste 0 -- -- 78
2019-08-20 15:00:00 17 14 Norte 31 Noroeste 0 -- -- 76
2019-08-20 14:00:00 16.9 15 Norte 29 Noroeste 0 -- -- 77
2019-08-20 13:00:00 17.2 13 Norte 27 Noroeste 0 -- -- 77
2019-08-20 12:00:00 18.6 9 Nordeste 15 Norte 0 -- -- 74
2019-08-20 11:00:00 16.5 6 Norte 14 Norte 0 -- -- 81
2019-08-20 10:00:00 16.6 10 Noroeste 16 Noroeste 0 -- -- 80
2019-08-20 09:00:00 16.2 5 Norte 10 Nordeste 0 -- -- 80
2019-08-20 08:00:00 15.9 4 Norte 20 Norte 0 -- -- 81
2019-08-20 07:00:00 16.3 13 Norte 26 Norte 0 -- -- 79
2019-08-20 06:00:00 18.5 0 Calma 11 Sudeste 0 -- -- 81
2019-08-20 05:00:00 19.3 5 Sur 13 Sudeste 0 -- -- 77
2019-08-20 04:00:00 20 8 Sudeste 14 Sudeste 0 -- -- 76
2019-08-20 03:00:00 20.4 6 Sudeste 19 Este 0 -- -- 74
2019-08-20 02:00:00 20.8 11 Sudeste 23 Sudeste 0 -- -- 73
2019-08-20 01:00:00 21.4 5 Sudeste 15 Este 0 -- -- 75
2019-08-20 00:00:00 21.5 6 Sudeste 25 Sudeste 0 -- -- 74
2019-08-19 23:00:00 21.8 10 Sur 20 Sur 0 -- -- 73
2019-08-19 22:00:00 22 11 Noroeste 27 Noroeste 0 -- -- 68
2019-08-19 21:00:00 23.2 12 Norte 25 Norte 0 -- -- 57
2019-08-19 20:00:00 25.2 12 Norte 32 Noroeste 0 -- -- 50
2019-08-19 19:00:00 27.4 18 Noroeste 31 Noroeste 0 -- -- 41
2019-08-19 18:00:00 30.6 11 Oeste 32 Sur 0 -- -- 20
2019-08-19 17:00:00 31.2 14 Sudoeste 32 Sur 0 -- -- 21
2019-08-19 16:00:00 31.5 14 Sudoeste 35 Sudeste 0 -- -- 22
2019-08-19 15:00:00 30.2 15 Sur 42 Sur 0 -- -- 23
2019-08-19 14:00:00 30.6 23 Sudeste 42 Sudeste 0 -- -- 22
2019-08-19 13:00:00 29 8 Este 15 Sudeste 0 -- -- 34
2019-08-19 12:00:00 23.8 8 Norte 21 Norte 0 -- -- 51
2019-08-19 11:00:00 21.6 11 Norte 17 Norte 0 -- -- 56
2019-08-19 10:00:00 19.3 6 Norte 10 Norte 0 -- -- 57
2019-08-19 09:00:00 15.4 4 Sudeste 8 Este 0 -- -- 51
2019-08-19 08:00:00 13.4 3 Noroeste 7 Oeste 0 -- -- 58
2019-08-19 07:00:00 13.8 4 Sur 9 Sur 0 -- -- 50
2019-08-19 06:00:00 14.5 0 Calma 6 Nordeste 0 -- -- 47
2019-08-19 05:00:00 15.7 3 Sudeste 8 Sudeste 0 -- -- 44
2019-08-19 04:00:00 16.9 3 Sur 10 Sudeste -- -- -- 42
2019-08-19 03:00:00 17.9 3 Sur 6 Sudeste 0 -- -- 40
2019-08-19 02:00:00 18.8 0 Calma 7 Sur 0 -- -- 38
2019-08-19 01:00:00 20.5 5 Noroeste 9 Noroeste 0 -- -- 35
2019-08-19 00:00:00 22.5 3 Sudoeste 9 Sudeste 0 -- -- 32
2019-08-18 23:00:00 23.3 0 Calma 10 Sudoeste 0 -- -- 31
2019-08-18 22:00:00 25.4 0 Calma 12 Oeste 0 -- -- 28
2019-08-18 21:00:00 28.5 4 Sudoeste 22 Sur 0 -- -- 24
2019-08-18 20:00:00 30.3 6 Sudoeste 27 Sudoeste 0 -- -- 23
2019-08-18 19:00:00 31.9 12 Sudoeste 28 Sudoeste 0 -- -- 21
2019-08-18 18:00:00 32.6 13 Sur 32 Sur 0 -- -- 20
2019-08-18 17:00:00 33.4 14 Sur 37 Sudoeste 0 -- -- 20
2019-08-18 16:00:00 33 20 Sur 39 Sur 0 -- -- 20
2019-08-18 15:00:00 33 18 Sur 37 Sur 0 -- -- 22
2019-08-18 14:00:00 32.3 18 Sur 38 Sudoeste 0 -- -- 22
2019-08-18 13:00:00 31.8 14 Sur 39 Sur 0 -- -- 23
2019-08-18 12:00:00 31 15 Sur 32 Sur 0 -- -- 25
2019-08-18 11:00:00 29.8 10 Sudoeste 28 Sudoeste 0 -- -- 27
2019-08-18 10:00:00 23.7 4 Este 10 Este 0 -- -- 51
2019-08-18 09:00:00 19.1 2 Nordeste 8 Este 0 -- -- 63
2019-08-18 08:00:00 16.6 2 Oeste 10 Este 0 -- -- 69
2019-08-18 07:00:00 16.9 2 Sur 7 Este 0 -- -- 69
2019-08-18 06:00:00 18.3 4 Este 10 Este 0 -- -- 65
2019-08-18 05:00:00 20.2 4 Oeste 15 Sudoeste 0 -- -- 61
2019-08-18 04:00:00 21.5 10 Sur 18 Sudoeste 0 -- -- 56
2019-08-18 03:00:00 21.5 11 Sudoeste 17 Sur 0 -- -- 54
2019-08-18 02:00:00 22.5 9 Sur 15 Sudoeste 0 -- -- 57
2019-08-18 01:00:00 23.4 11 Sudoeste 25 Sudoeste 0 -- -- 54
2019-08-18 00:00:00 23.1 3 Sur 17 Sudoeste 0 -- -- 44
2019-08-17 23:00:00 25.1 10 Sudoeste 17 Sudoeste 0 -- -- 31
2019-08-17 22:00:00 26.3 2 Sur 11 Sudoeste 0 -- -- 28
2019-08-17 21:00:00 28.7 5 Sudoeste 20 Sur 0 -- -- 25
2019-08-17 20:00:00 31.2 8 Sudoeste 22 Sudoeste 0 -- -- 23
2019-08-17 19:00:00 32.9 8 Sur 27 Sudoeste 0 -- -- 22
2019-08-17 18:00:00 33.7 12 Sudoeste 28 Sudoeste 0 -- -- 21
2019-08-17 17:00:00 34.1 10 Sudoeste 27 Sudoeste 0 -- -- 19
2019-08-17 16:00:00 33.1 11 Sudeste 27 Sudeste 0 -- -- 25
2019-08-17 15:00:00 33.1 12 Sudeste 30 Sudoeste 0 -- -- 24
2019-08-17 14:00:00 32.5 14 Sudoeste 40 Sudoeste 0 -- -- 21
2019-08-17 13:00:00 31.5 17 Sur 34 Sudoeste 0 -- -- 23
2019-08-17 12:00:00 30.8 15 Oeste 29 Sudoeste 0 -- -- 27
2019-08-17 11:00:00 28.3 9 Este 16 Este 0 -- -- 38
2019-08-17 10:00:00 23 7 Sudeste 23 Sudeste 0 -- -- 51
2019-08-17 09:00:00 18.6 15 Este 28 Este 0 -- -- 63
2019-08-17 08:00:00 16.2 8 Sudeste 24 Este 0 -- -- 69
2019-08-17 07:00:00 16.7 14 Sudeste 28 Este 0 -- -- 68
2019-08-17 06:00:00 16.8 7 Sudeste 15 Sudeste 0 -- -- 68
2019-08-17 05:00:00 18.3 11 Sudeste 21 Este 0 -- -- 65
2019-08-17 04:00:00 19.6 6 Sudeste 20 Sudoeste 0 -- -- 61
2019-08-17 03:00:00 20.6 10 Sudoeste 21 Sudoeste 0 -- -- 53
2019-08-17 02:00:00 21.5 10 Sudoeste 24 Sur 0 -- -- 65
2019-08-17 01:00:00 21.7 14 Sur 25 Sur 0 -- -- 62
2019-08-17 00:00:00 20 7 Oeste 11 Noroeste 0 -- -- 56
2019-08-16 23:00:00 22.2 7 Noroeste 13 Noroeste 0 -- -- 70
2019-08-16 22:00:00 24.8 5 Oeste 10 Sudoeste 0 -- -- 34
2019-08-16 21:00:00 27.5 4 Oeste 17 Sudoeste 0 -- -- 30
2019-08-16 20:00:00 30 8 Oeste 26 Oeste 0 -- -- 27
2019-08-16 19:00:00 31.8 12 Oeste 23 Oeste 0 -- -- 25
2019-08-16 18:00:00 32.3 5 Oeste 24 Noroeste 0 -- -- 24
2019-08-16 17:00:00 31.7 11 Noroeste 42 Noroeste 0 -- -- 27
2019-08-16 16:00:00 31.4 10 Oeste 21 Oeste 0 -- -- 27
2019-08-16 15:00:00 29.3 6 Norte 23 Nordeste 0 -- -- 35
2019-08-16 14:00:00 29 17 Nordeste 39 Norte 0 -- -- 38
2019-08-16 13:00:00 29.8 5 Este 15 Norte 0 -- -- 36
2019-08-16 12:00:00 26.5 9 Norte 19 Norte 0 -- -- 46
2019-08-16 11:00:00 24.3 9 Norte 14 Norte 0 -- -- 52
2019-08-16 10:00:00 21.1 6 Este 18 Sudeste 0 -- -- 61
2019-08-16 09:00:00 16.4 7 Sudeste 19 Sudeste 0 -- -- 74
2019-08-16 08:00:00 13.8 4 Sudeste 11 Sur 0 -- -- 80
2019-08-16 07:00:00 14.3 9 Sudeste 15 Sudeste 0 -- -- 79
2019-08-16 06:00:00 14.7 4 Sudeste 10 Este 0 -- -- 76
2019-08-16 05:00:00 15.4 2 Este 7 Norte 0 -- -- 71
2019-08-16 04:00:00 16.3 0 Calma 5 Sur 0 -- -- 67
2019-08-16 03:00:00 17 4 Sur 8 Sudoeste 0 -- -- 65
2019-08-16 02:00:00 18.5 0 Calma 9 Nordeste 0 -- -- 60
2019-08-16 01:00:00 19 5 Norte 14 Norte 0 -- -- 59
2019-08-16 00:00:00 20.7 7 Norte 15 Nordeste 0 -- -- 59
2019-08-15 23:00:00 21.4 7 Norte 16 Norte 0 -- -- 76
2019-08-15 22:00:00 23.2 4 Nordeste 27 Este 0 -- -- 70
2019-08-15 21:00:00 24.9 16 Este 25 Sudeste 0 -- -- 65
2019-08-15 20:00:00 27.3 10 Norte 28 Noroeste 0 -- -- 41
2019-08-15 19:00:00 28.9 9 Noroeste 22 Norte 0 -- -- 33
2019-08-15 18:00:00 29.6 9 Noroeste 26 Noroeste 0 -- -- 32
2019-08-15 17:00:00 29.6 10 Norte 24 Norte 0 -- -- 32
2019-08-15 16:00:00 30.8 4 Sudeste 28 Norte 0 -- -- 28
2019-08-15 15:00:00 29.3 10 Norte 22 Norte 0 -- -- 31
2019-08-15 14:00:00 27.8 9 Norte 19 Norte 0 -- -- 32
2019-08-15 13:00:00 26.4 8 Nordeste 18 Nordeste 0 -- -- 39
2019-08-15 12:00:00 24.4 8 Norte 17 Nordeste 0 -- -- 46
2019-08-15 11:00:00 22.6 5 Norte 15 Norte 0 -- -- 50
2019-08-15 10:00:00 19.4 3 Norte 9 Este 0 -- -- 47
2019-08-15 09:00:00 14.9 4 Este 21 Este 0 -- -- 54
2019-08-15 08:00:00 12.4 12 Sudeste 26 Sudeste 0 -- -- 59
2019-08-15 07:00:00 12.5 12 Sudeste 24 Sudeste 0 -- -- 58
2019-08-15 06:00:00 12.9 6 Sur 17 Este 0 -- -- 57
2019-08-15 05:00:00 13.3 2 Sudoeste 10 Sudeste 0 -- -- 55
2019-08-15 04:00:00 13.9 3 Sudoeste 7 Oeste 0 -- -- 53
2019-08-15 03:00:00 14.2 0 Calma 6 Sudeste 0 -- -- 53
2019-08-15 02:00:00 15.4 2 Oeste 6 Noroeste 0 -- -- 50
2019-08-15 01:00:00 16.2 0 Calma 7 Oeste 0 -- -- 48
2019-08-15 00:00:00 17.8 4 Sur 13 Norte 0 -- -- 44
2019-08-14 23:00:00 19.9 0 Calma 8 Sur 0 -- -- 38
2019-08-14 22:00:00 21.5 3 Sudoeste 9 Oeste 0 -- -- 35
2019-08-14 21:00:00 24.5 3 Noroeste 16 Nordeste 0 -- -- 31
2019-08-14 20:00:00 27.2 6 Norte 22 Norte 0 -- -- 26
2019-08-14 19:00:00 28.1 8 Norte 22 Norte 0 -- -- 25
2019-08-14 18:00:00 28.6 8 Nordeste 26 Norte 0 -- -- 24
2019-08-14 17:00:00 28.3 12 Nordeste 23 Nordeste 0 -- -- 25
2019-08-14 16:00:00 28.4 10 Este 28 Sudeste 0 -- -- 27
2019-08-14 15:00:00 27.5 7 Nordeste 21 Este 0 -- -- 27
2019-08-14 14:00:00 26.9 5 Sur 20 Nordeste 0 -- -- 31
2019-08-14 13:00:00 24.9 9 Nordeste 21 Norte 0 -- -- 36
2019-08-14 12:00:00 24.3 8 Norte 15 Norte 0 -- -- 42
2019-08-14 11:00:00 22.2 9 Este 14 Este 0 -- -- 44
2019-08-14 10:00:00 17.5 12 Este 20 Sudeste 0 -- -- 64
2019-08-14 09:00:00 12.4 14 Sudeste 23 Este 0 -- -- 73
2019-08-14 08:00:00 10.1 9 Sudeste 17 Sudeste 0 -- -- 78
2019-08-14 07:00:00 10.1 6 Sudeste 17 Sudeste 0 -- -- 75
2019-08-14 06:00:00 10.3 10 Sudeste 19 Sudeste 0 -- -- 72
2019-08-14 05:00:00 10.7 8 Sur 19 Sudeste 0 -- -- 69
2019-08-14 04:00:00 11 3 Sudoeste 12 Este 0 -- -- 70
2019-08-14 03:00:00 11.7 5 Sudeste 10 Este 0 -- -- 68
2019-08-14 02:00:00 12.2 2 Este 6 Oeste 0 -- -- 69
2019-08-14 01:00:00 12.9 0 Calma 4 Noroeste 0 -- -- 62
2019-08-14 00:00:00 14.3 3 Noroeste 5 Noroeste 0 -- -- 57
2019-08-13 23:00:00 16.2 3 Noroeste 9 Noroeste 0 -- -- 51
2019-08-13 22:00:00 17.6 4 Norte 12 Oeste 0 -- -- 47
2019-08-13 21:00:00 19.7 6 Oeste 19 Noroeste 0 -- -- 42
2019-08-13 20:00:00 22.3 9 Norte 22 Norte 0 -- -- 36
2019-08-13 19:00:00 23.4 10 Nordeste 19 Nordeste 0 -- -- 38
2019-08-13 18:00:00 24.6 6 Nordeste 17 Sudeste 0 -- -- 39
2019-08-13 17:00:00 24.2 6 Este 18 Noroeste 0 -- -- 39
2019-08-13 16:00:00 23.3 6 Noroeste 17 Noroeste 0 -- -- 43
2019-08-13 15:00:00 21.1 8 Nordeste 28 Noroeste 0 -- -- 53
2019-08-13 14:00:00 18.4 16 Noroeste 48 Oeste 1.8 -- -- 73
2019-08-13 13:00:00 21.7 9 Nordeste 19 Nordeste 0 -- -- 49
2019-08-13 12:00:00 19.7 4 Este 12 Este 0 -- -- 49
2019-08-13 11:00:00 17.3 4 Este 10 Este 0 -- -- 51
2019-08-13 10:00:00 14.1 2 Norte 9 Nordeste 0 -- -- 58
2019-08-13 09:00:00 12.5 6 Norte 11 Norte 0 -- -- 62
2019-08-13 08:00:00 11.4 0 Calma 7 Norte 0 -- -- 65
2019-08-13 07:00:00 11.3 3 Norte 17 Noroeste 0 -- -- 65
2019-08-13 06:00:00 12.2 10 Noroeste 17 Noroeste 0 -- -- 61
2019-08-13 05:00:00 12.3 6 Noroeste 15 Noroeste 0 -- -- 63
2019-08-13 04:00:00 12.1 3 Nordeste 20 Noroeste 0 -- -- 66
2019-08-13 03:00:00 11.9 12 Noroeste 21 Noroeste 0 -- -- 67
2019-08-13 02:00:00 12.3 11 Noroeste 19 Noroeste 0 -- -- 68
2019-08-13 01:00:00 12.5 10 Noroeste 22 Noroeste 0 -- -- 67
2019-08-13 00:00:00 13.2 12 Norte 26 Noroeste 0 -- -- 64
2019-08-12 23:00:00 14.4 16 Noroeste 31 Noroeste 0 -- -- 59
2019-08-12 22:00:00 16 20 Noroeste 36 Norte 0 -- -- 52
2019-08-12 21:00:00 17.9 14 Noroeste 41 Noroeste 0 -- -- 44
2019-08-12 20:00:00 20.6 20 Noroeste 37 Noroeste 0 -- -- 38
2019-08-12 19:00:00 23 19 Noroeste 31 Noroeste 0 -- -- 32
2019-08-12 18:00:00 23.5 10 Norte 29 Norte 0 -- -- 31
2019-08-12 17:00:00 23.7 7 Norte 24 Nordeste 0 -- -- 31
2019-08-12 16:00:00 23.1 12 Nordeste 36 Norte 0 -- -- 33
2019-08-12 15:00:00 22.6 9 Nordeste 23 Nordeste 0 -- -- 36
2019-08-12 14:00:00 21.7 9 Norte 26 Noroeste 0 -- -- 38
2019-08-12 13:00:00 20.3 13 Norte 26 Nordeste 0 -- -- 44
2019-08-12 12:00:00 19.2 14 Nordeste 23 Nordeste 0 -- -- 50
2019-08-12 11:00:00 17.9 9 Nordeste 21 Norte 0 -- -- 57
2019-08-12 10:00:00 16.1 11 Norte 22 Norte 0 -- -- 63
2019-08-12 09:00:00 14.1 13 Norte 25 Norte 0 -- -- 72
2019-08-12 08:00:00 12.4 2 Nordeste 9 Norte 0 -- -- 80
2019-08-12 07:00:00 12.2 2 Norte 9 Oeste 0 -- -- 78
2019-08-12 06:00:00 12.7 5 Sudoeste 11 Norte 0 -- -- 75
2019-08-12 05:00:00 13.6 3 Sudoeste 10 Norte 0 -- -- 73
2019-08-12 04:00:00 15.2 5 Noroeste 9 Noroeste 0 -- -- 67
2019-08-12 03:00:00 15.8 3 Noroeste 10 Norte 0 -- -- 64
2019-08-12 02:00:00 16.8 2 Sur 7 Norte 0 -- -- 58
2019-08-12 01:00:00 17.9 7 Noroeste 17 Norte 0 -- -- 55
2019-08-12 00:00:00 19.6 9 Norte 20 Norte 0 -- -- 47
2019-08-11 23:00:00 21 8 Sur 14 Sudoeste 0 -- -- 31
2019-08-11 22:00:00 22.1 0 Calma 15 Oeste 0 -- -- 30
2019-08-11 21:00:00 24.7 12 Oeste 21 Oeste 0 -- -- 26
2019-08-11 20:00:00 27.2 6 Oeste 25 Sur 0 -- -- 23
2019-08-11 19:00:00 28.6 9 Sur 26 Sudoeste 0 -- -- 22
2019-08-11 18:00:00 28.4 13 Oeste 28 Oeste 0 -- -- 22
2019-08-11 17:00:00 29.5 15 Sudoeste 32 Sudoeste 0 -- -- 22
2019-08-11 16:00:00 29.5 16 Sur 32 Sur 0 -- -- 20
2019-08-11 15:00:00 29.3 19 Sur 33 Sur 0 -- -- 25
2019-08-11 14:00:00 28.3 13 Sur 32 Sudoeste 0 -- -- 28
2019-08-11 13:00:00 27.7 15 Sudeste 29 Sudeste 0 -- -- 28
2019-08-11 12:00:00 26.5 14 Sudoeste 31 Sudoeste 0 -- -- 31
2019-08-11 11:00:00 23.7 6 Sur 16 Sudeste 0 -- -- 54
2019-08-11 10:00:00 23.1 7 Este 13 Nordeste 0 -- -- 60
2019-08-11 09:00:00 20.7 7 Sudeste 14 Sur 0 -- -- 70
2019-08-11 08:00:00 18.4 8 Sur 14 Sudeste 0 -- -- 77
2019-08-11 07:00:00 18.5 10 Sudoeste 22 Sudoeste 0 -- -- 75
2019-08-11 06:00:00 19.1 10 Sudoeste 18 Sudoeste 0 -- -- 72
2019-08-11 05:00:00 19.5 9 Sudoeste 15 Sudoeste 0 -- -- 70
2019-08-11 04:00:00 20.3 8 Sur 20 Sur 0 -- -- 67
2019-08-11 03:00:00 20.7 7 Sur 28 Sudeste 0 -- -- 66
2019-08-11 02:00:00 21.9 15 Sur 27 Sur 0 -- -- 66
2019-08-11 01:00:00 22.5 11 Sudoeste 18 Sudoeste 0 -- -- 66
2019-08-11 00:00:00 21.8 4 Sur 13 Sudoeste 0 -- -- 52
2019-08-10 23:00:00 23.2 4 Oeste 10 Sudoeste 0 -- -- 45
2019-08-10 22:00:00 25.5 7 Sudoeste 11 Sudoeste 0 -- -- 40
2019-08-10 21:00:00 27.5 7 Sudoeste 31 Sur 0 -- -- 37
2019-08-10 20:00:00 29.4 9 Sudoeste 30 Sudoeste 0 -- -- 33
2019-08-10 19:00:00 30.5 12 Sur 30 Sudoeste 0 -- -- 31
2019-08-10 18:00:00 31.7 13 Sudoeste 36 Sudoeste 0 -- -- 30
2019-08-10 17:00:00 32.1 15 Sudeste 38 Sudeste 0 -- -- 30
2019-08-10 16:00:00 31.5 17 Sudeste 40 Sur 0 -- -- 31
2019-08-10 15:00:00 31.5 14 Sudoeste 27 Sudeste 0 -- -- 31
2019-08-10 14:00:00 30.7 12 Sur 29 Sudeste 0 -- -- 32
2019-08-10 13:00:00 29 10 Sudoeste 28 Sur 0 -- -- 37
2019-08-10 12:00:00 28 12 Sudoeste 26 Sudoeste 0 -- -- 42
2019-08-10 11:00:00 24.4 6 Norte 15 Norte 0 -- -- 56
2019-08-10 10:00:00 21.3 7 Norte 13 Norte 0 -- -- 65
2019-08-10 09:00:00 18 8 Norte 12 Norte 0 -- -- 77
2019-08-10 08:00:00 14.6 4 Sur 6 Noroeste 0 -- -- 86
2019-08-10 07:00:00 14.7 0 Calma 6 Oeste 0 -- -- 85
2019-08-10 06:00:00 15.7 2 Oeste 6 Noroeste 0 -- -- 82
2019-08-10 05:00:00 16.4 4 Norte 9 Noroeste 0 -- -- 79
2019-08-10 04:00:00 16.9 2 Oeste 5 Oeste 0 -- -- 76
2019-08-10 03:00:00 18.5 0 Calma 5 Oeste 0 -- -- 69
2019-08-10 02:00:00 19.7 2 Oeste 6 Noroeste 0 -- -- 65
2019-08-10 01:00:00 21.2 0 Calma 4 Noroeste 0 -- -- 60
2019-08-10 00:00:00 22.7 0 Calma 13 Oeste 0 -- -- 55
2019-08-09 23:00:00 24.2 6 Sudoeste 11 Oeste 0 -- -- 49
2019-08-09 22:00:00 25.4 5 Sudoeste 10 Sudoeste 0 -- -- 43
2019-08-09 21:00:00 27.6 8 Oeste 24 Sur 0 -- -- 38
2019-08-09 20:00:00 29.6 14 Sur 31 Sur 0 -- -- 35
2019-08-09 19:00:00 30.9 13 Sudoeste 32 Sudoeste 0 -- -- 32
2019-08-09 18:00:00 31.4 15 Sur 37 Sur 0 -- -- 31
2019-08-09 17:00:00 31.6 18 Sur 34 Sur 0 -- -- 31
2019-08-09 16:00:00 32.4 16 Sudoeste 36 Oeste 0 -- -- 28
2019-08-09 15:00:00 31.7 10 Oeste 42 Sudoeste 0 -- -- 29
2019-08-09 14:00:00 31 14 Sudoeste 30 Oeste 0 -- -- 28
2019-08-09 13:00:00 30.6 10 Sudoeste 34 Oeste 0 -- -- 31
2019-08-09 12:00:00 29 13 Sudoeste 37 Sudoeste 0 -- -- 33
2019-08-09 11:00:00 27 17 Sur 32 Sur 0 -- -- 38
2019-08-09 10:00:00 24.5 13 Este 24 Este 0 -- -- 50
2019-08-09 09:00:00 19.1 2 Nordeste 13 Este 0 -- -- 61
2019-08-09 08:00:00 14.9 0 Calma 6 Sudeste 0 -- -- 69
2019-08-09 07:00:00 15.4 6 Sur 14 Sudeste 0 -- -- 67
2019-08-09 06:00:00 16.7 8 Sudeste 16 Este 0 -- -- 63
2019-08-09 05:00:00 17.6 6 Sudeste 11 Sudeste 0 -- -- 59
2019-08-09 04:00:00 18 4 Sur 8 Oeste 0 -- -- 58
2019-08-09 03:00:00 18.1 0 Calma 7 Este 0 -- -- 58
2019-08-09 02:00:00 19.6 2 Sudoeste 10 Sudeste 0 -- -- 54
2019-08-09 01:00:00 20.9 5 Noroeste 8 Sudeste 0 -- -- 50
2019-08-09 00:00:00 23 4 Sur 15 Sudoeste 0 -- -- 45
2019-08-08 23:00:00 24.6 7 Sudoeste 11 Sudoeste 0 -- -- 42
2019-08-08 22:00:00 26 6 Sudoeste 14 Sur 0 -- -- 39
2019-08-08 21:00:00 27.7 5 Sudoeste 22 Oeste 0 -- -- 36
2019-08-08 20:00:00 29.8 11 Sur 27 Sur 0 -- -- 33
2019-08-08 19:00:00 31.3 8 Sur 33 Sudoeste 0 -- -- 31
2019-08-08 18:00:00 32.1 13 Sudoeste 29 Oeste 0 -- -- 29
2019-08-08 17:00:00 32.5 14 Sudoeste 35 Sudeste 0 -- -- 28
2019-08-08 16:00:00 32.4 12 Sudoeste 32 Sudoeste 0 -- -- 30
2019-08-08 15:00:00 31.7 10 Sur 28 Sur 0 -- -- 32
2019-08-08 14:00:00 31.3 10 Oeste 30 Sur 0 -- -- 33
2019-08-08 13:00:00 29.2 9 Sur 23 Sudoeste 0 -- -- 36
2019-08-08 12:00:00 27.8 5 Este 21 Este 0 -- -- 36
2019-08-08 11:00:00 25 9 Sudeste 19 Sudeste 0 -- -- 42
2019-08-08 10:00:00 21.8 10 Sudeste 22 Este 0 -- -- 51
2019-08-08 09:00:00 17.7 9 Sudeste 16 Sudeste 0 -- -- 62
2019-08-08 08:00:00 14.4 2 Sur 9 Este 0 -- -- 71
2019-08-08 07:00:00 14.6 3 Sudeste 6 Sudeste 0 -- -- 69
2019-08-08 06:00:00 14.9 0 Calma 7 Sur 0 -- -- 68
2019-08-08 05:00:00 15.2 4 Sur 7 Oeste 0 -- -- 66
2019-08-08 04:00:00 16 2 Sur 7 Norte 0 -- -- 63
2019-08-08 03:00:00 16.7 2 Sur 7 Oeste 0 -- -- 60
2019-08-08 02:00:00 18.2 0 Calma 5 Noroeste 0 -- -- 55
2019-08-08 01:00:00 19.8 3 Sur 8 Sudoeste 0 -- -- 50
2019-08-08 00:00:00 21.6 6 Oeste 9 Sudoeste 0 -- -- 45
2019-08-07 23:00:00 22.9 5 Sudoeste 11 Oeste 0 -- -- 39
2019-08-07 22:00:00 23.4 3 Sudoeste 19 Oeste 0 -- -- 38
2019-08-07 21:00:00 25.3 8 Sur 23 Oeste 0 -- -- 33
2019-08-07 20:00:00 26.2 6 Sur 14 Sudoeste 0 -- -- 30
2019-08-07 19:00:00 26.9 8 Sur 22 Sur 0 -- -- 30
2019-08-07 18:00:00 27.3 11 Oeste 22 Oeste 0 -- -- 31
2019-08-07 17:00:00 27.4 13 Oeste 25 Noroeste 0 -- -- 30
2019-08-07 16:00:00 28.3 6 Oeste 21 Sudoeste 0 -- -- 28
2019-08-07 15:00:00 27.9 11 Oeste 25 Noroeste 0 -- -- 28
2019-08-07 14:00:00 27.4 12 Oeste 23 Oeste 0 -- -- 29
2019-08-07 13:00:00 25.8 5 Sudeste 19 Sur 0 -- -- 34
2019-08-07 12:00:00 24.1 11 Sur 22 Sudoeste 0 -- -- 39
2019-08-07 11:00:00 23.6 8 Sudoeste 21 Sudoeste 0 -- -- 41
2019-08-07 10:00:00 22.8 14 Sur 23 Sur 0 -- -- 41
2019-08-07 09:00:00 21.7 6 Sur 15 Sudoeste 0 -- -- 40
2019-08-07 08:00:00 21 7 Sur 14 Sur 0 -- -- 39
2019-08-07 07:00:00 21.2 9 Sur 15 Sur 0 -- -- 37
2019-08-07 06:00:00 21.4 9 Sur 16 Sur 0 -- -- 38
2019-08-07 05:00:00 20.8 7 Sudoeste 18 Sudoeste 0 -- -- 38
2019-08-07 04:00:00 21.1 15 Sudoeste 19 Sudoeste 0 -- -- 34
2019-08-07 03:00:00 21.2 15 Sudoeste 18 Sudoeste 0 -- -- 30
2019-08-07 02:00:00 21 10 Sudoeste 17 Sudoeste 0 -- -- 25
2019-08-07 01:00:00 22 11 Sudoeste 17 Sudoeste 0 -- -- 23
2019-08-07 00:00:00 22.9 13 Sudoeste 21 Sudoeste 0 -- -- 23
2019-08-06 23:00:00 23.6 13 Sudoeste 21 Sur 0 -- -- 22
2019-08-06 22:00:00 26.4 11 Sur 18 Sur 0 -- -- 20
2019-08-06 21:00:00 28.8 11 Sur 25 Sur 0 -- -- 17
2019-08-06 20:00:00 30.6 10 Sudoeste 19 Sur 0 -- -- 18
2019-08-06 19:00:00 31.9 13 Sudoeste 24 Sudoeste 0 -- -- 15
2019-08-06 18:00:00 33.5 10 Sudoeste 30 Sudoeste 0 -- -- 16
2019-08-06 17:00:00 33.3 9 Sudeste 30 Sudoeste 0 -- -- 18
2019-08-06 16:00:00 33.4 13 Sur 33 Sur 0 -- -- 19
2019-08-06 15:00:00 32.8 11 Sudoeste 26 Sudoeste 0 -- -- 19
2019-08-06 14:00:00 31.9 14 Sur 33 Sudeste 0 -- -- 20
2019-08-06 13:00:00 31.4 14 Sur 31 Sur 0 -- -- 21
2019-08-06 12:00:00 30.4 13 Sur 27 Sudoeste 0 -- -- 22
2019-08-06 11:00:00 29.4 13 Sudoeste 28 Oeste 0 -- -- 24
2019-08-06 10:00:00 24.3 9 Este 17 Sudeste 0 -- -- 47
2019-08-06 09:00:00 19.4 11 Este 22 Sudeste 0 -- -- 64
2019-08-06 08:00:00 16.6 10 Sudeste 18 Este 0 -- -- 72
2019-08-06 07:00:00 16.9 7 Sudeste 21 Este 0 -- -- 66
2019-08-06 06:00:00 18.7 12 Sudeste 20 Sur 0 -- -- 59
2019-08-06 05:00:00 20.7 9 Sudoeste 20 Sudoeste 0 -- -- 67
2019-08-06 04:00:00 20.2 7 Sur 23 Sudoeste 0 -- -- 49
2019-08-06 03:00:00 20.8 11 Sudoeste 19 Sudoeste 0 -- -- 46
2019-08-06 02:00:00 20 0 Calma 21 Sudoeste 0 -- -- 42
2019-08-06 01:00:00 22.3 13 Sudoeste 19 Sudoeste 0 -- -- 47
2019-08-06 00:00:00 21.6 3 Sur 7 Sur 0 -- -- 31
2019-08-05 23:00:00 23.7 5 Sudeste 12 Sudoeste 0 -- -- 27
2019-08-05 22:00:00 25.4 3 Sudoeste 12 Oeste 0 -- -- 26
2019-08-05 21:00:00 29.1 4 Sudoeste 17 Sur 0 -- -- 21
2019-08-05 20:00:00 31.9 9 Sudoeste 24 Sudoeste 0 -- -- 17
2019-08-05 19:00:00 33.2 12 Sudoeste 28 Sudoeste 0 -- -- 15
2019-08-05 18:00:00 34 11 Oeste 29 Sudoeste 0 -- -- 16
2019-08-05 17:00:00 34 12 Sudoeste 30 Sudeste 0 -- -- 17
2019-08-05 16:00:00 33.5 18 Sudeste 33 Sur 0 -- -- 19
2019-08-05 15:00:00 33.2 14 Sur 40 Sudeste 0 -- -- 21
2019-08-05 14:00:00 32.8 6 Oeste 20 Sudoeste 0 -- -- 21
2019-08-05 13:00:00 31.9 12 Sudoeste 25 Sudoeste 0 -- -- 21
2019-08-05 12:00:00 31.2 9 Oeste 21 Sudoeste 0 -- -- 23
2019-08-05 11:00:00 28.5 10 Este 16 Este 0 -- -- 33
2019-08-05 10:00:00 23.6 10 Este 19 Sudeste 0 -- -- 54
2019-08-05 09:00:00 19 12 Este 18 Este 0 -- -- 63
2019-08-05 08:00:00 15.9 9 Sudeste 22 Sudeste 0 -- -- 65
2019-08-05 07:00:00 16 12 Sudeste 21 Este 0 -- -- 60
2019-08-05 06:00:00 16.7 6 Sudeste 12 Este 0 -- -- 57
2019-08-05 05:00:00 16.9 3 Noroeste 11 Este 0 -- -- 53
2019-08-05 04:00:00 17.7 3 Norte 15 Sur 0 -- -- 48
2019-08-05 03:00:00 18.5 4 Sudeste 8 Este 0 -- -- 52
2019-08-05 02:00:00 19.3 0 Calma 4 Oeste 0 -- -- 51
2019-08-05 01:00:00 19.9 0 Calma 9 Sudeste 0 -- -- 42
2019-08-05 00:00:00 21.3 3 Sudeste 12 Sudeste 0 -- -- 36
2019-08-04 23:00:00 23.4 2 Sudoeste 6 Sudoeste 0 -- -- 32
2019-08-04 22:00:00 25.7 5 Sudoeste 13 Sudoeste 0 -- -- 28
2019-08-04 21:00:00 28.4 6 Sudoeste 19 Sudoeste 0 -- -- 25
2019-08-04 20:00:00 31.1 10 Sur 22 Sudoeste 0 -- -- 23
2019-08-04 19:00:00 32.2 13 Sur 29 Sudeste 0 -- -- 22
2019-08-04 18:00:00 32.9 11 Sudoeste 31 Sudeste 0 -- -- 22
2019-08-04 17:00:00 32.1 10 Sur 34 Sudeste 0 -- -- 26
2019-08-04 16:00:00 32.5 12 Sur 39 Sudeste 0 -- -- 25
2019-08-04 15:00:00 33.1 13 Sudeste 28 Sudoeste 0 -- -- 25
2019-08-04 14:00:00 32.7 16 Sudeste 35 Sudeste 0 -- -- 24
2019-08-04 13:00:00 31.8 12 Sudoeste 27 Oeste 0 -- -- 25
2019-08-04 12:00:00 31.2 8 Sudoeste 21 Sudeste 0 -- -- 23
2019-08-04 11:00:00 28.8 10 Sudeste 19 Sudeste 0 -- -- 35
2019-08-04 10:00:00 24 7 Este 18 Sur 0 -- -- 53
2019-08-04 09:00:00 19.8 13 Este 23 Este 0 -- -- 70
2019-08-04 08:00:00 17.5 12 Sudeste 20 Este 0 -- -- 75
2019-08-04 07:00:00 17.8 10 Sudeste 19 Sudoeste 0 -- -- 73
2019-08-04 06:00:00 19.7 11 Sudoeste 24 Sur 0 -- -- 68
2019-08-04 05:00:00 19.9 15 Sudoeste 25 Sudoeste 0 -- -- 69
2019-08-04 04:00:00 20.4 9 Sudoeste 15 Sur 0 -- -- 70
2019-08-04 03:00:00 20.7 8 Sudoeste 14 Sudoeste 0 -- -- 68
2019-08-04 02:00:00 21.4 5 Sur 15 Sudoeste 0 -- -- 61
2019-08-04 01:00:00 22.7 11 Sudoeste 23 Sudoeste 0 -- -- 58
2019-08-04 00:00:00 23.3 9 Sudoeste 22 Sur 0 -- -- 48
2019-08-03 23:00:00 23.9 6 Sur 15 Sudoeste 0 -- -- 32
2019-08-03 22:00:00 26.1 10 Sudoeste 14 Sudoeste 0 -- -- 28
2019-08-03 21:00:00 28.6 4 Sudoeste 19 Sur 0 -- -- 26
2019-08-03 20:00:00 31 10 Sur 27 Sudoeste 0 -- -- 22
2019-08-03 19:00:00 32.1 15 Sudoeste 29 Sudoeste 0 -- -- 21
2019-08-03 18:00:00 33.2 12 Sudoeste 30 Sur 0 -- -- 20
2019-08-03 17:00:00 32.9 13 Sur 28 Sudeste 0 -- -- 22
2019-08-03 16:00:00 32.9 9 Sur 31 Sudoeste 0 -- -- 26
2019-08-03 15:00:00 32.6 17 Sudoeste 33 Sudoeste 0 -- -- 24
2019-08-03 14:00:00 31.9 13 Sudeste 33 Sudeste 0 -- -- 29
2019-08-03 13:00:00 30.9 15 Sudeste 31 Sudeste 0 -- -- 30
2019-08-03 12:00:00 29.6 13 Sudeste 26 Sur 0 -- -- 33
2019-08-03 11:00:00 27.1 7 Este 14 Este 0 -- -- 41
2019-08-03 10:00:00 22.5 6 Este 15 Sudeste 0 -- -- 55
2019-08-03 09:00:00 18.3 10 Sudeste 17 Sudeste 0 -- -- 66
2019-08-03 08:00:00 15.2 6 Sudeste 15 Sudeste 0 -- -- 75
2019-08-03 07:00:00 15.2 14 Sudeste 23 Sudeste 0 -- -- 74
2019-08-03 06:00:00 15.7 8 Sudeste 20 Sur 0 -- -- 74
2019-08-03 05:00:00 15.8 6 Sudeste 18 Sudeste 0 -- -- 73
2019-08-03 04:00:00 16.6 6 Sudeste 13 Este 0 -- -- 71
2019-08-03 03:00:00 17.1 4 Sudeste 10 Este 0 -- -- 70
2019-08-03 02:00:00 18.2 0 Calma 7 Sur 0 -- -- 66
2019-08-03 01:00:00 18.5 2 Sur 5 Sudoeste 0 -- -- 67
2019-08-03 00:00:00 19.9 4 Oeste 8 Noroeste 0 -- -- 62
2019-08-02 23:00:00 22 4 Noroeste 9 Nordeste 0 -- -- 56
2019-08-02 22:00:00 23.9 4 Noroeste 21 Este 0 -- -- 51
2019-08-02 21:00:00 26.7 6 Sudeste 27 Norte 0 -- -- 44
2019-08-02 20:00:00 30.8 6 Nordeste 25 Este 0 -- -- 32
2019-08-02 19:00:00 31.7 14 Nordeste 26 Noroeste 0 -- -- 33
2019-08-02 18:00:00 33.2 5 Sudeste 18 Sudoeste 0 -- -- 20
2019-08-02 17:00:00 33 7 Este 24 Norte 0 -- -- 20
2019-08-02 16:00:00 32.3 8 Noroeste 24 Norte 0 -- -- 21
2019-08-02 15:00:00 30.8 4 Nordeste 19 Nordeste 0 -- -- 29
2019-08-02 14:00:00 29.4 8 Nordeste 22 Norte 0 -- -- 37
2019-08-02 13:00:00 27.2 7 Norte 17 Nordeste 0 -- -- 43
2019-08-02 12:00:00 24.8 9 Norte 21 Norte 0 -- -- 53
2019-08-02 11:00:00 23.4 9 Norte 18 Norte 0 -- -- 54
2019-08-02 10:00:00 20.7 8 Sudeste 17 Este 0 -- -- 55
2019-08-02 09:00:00 16.3 6 Sudeste 12 Sudeste 0 -- -- 66
2019-08-02 08:00:00 13 0 Calma 5 Sur 0 -- -- 74
2019-08-02 07:00:00 13.1 0 Calma 8 Sudeste 0 -- -- 73
2019-08-02 06:00:00 14.4 2 Oeste 9 Este 0 -- -- 68
2019-08-02 05:00:00 15.2 2 Oeste 6 Sudeste 0 -- -- 67
2019-08-02 04:00:00 16.6 0 Calma 5 Sudeste 0 -- -- 62
2019-08-02 03:00:00 18.1 4 Sudeste 6 Este 0 -- -- 59
2019-08-02 02:00:00 19.2 3 Sudeste 9 Sur 0 -- -- 60
2019-08-02 01:00:00 20.6 4 Noroeste 17 Noroeste 0 -- -- 52
2019-08-02 00:00:00 21.1 4 Sur 13 Sudeste 0 -- -- 43
2019-08-01 23:00:00 23 9 Sur 13 Sur 0 -- -- 39
2019-08-01 22:00:00 24.3 3 Noroeste 12 Sudoeste 0 -- -- 37
2019-08-01 21:00:00 27.2 9 Sudoeste 17 Sudoeste 0 -- -- 32
2019-08-01 20:00:00 29.2 10 Sur 20 Sudoeste 0 -- -- 29
2019-08-01 19:00:00 30.6 11 Sudoeste 25 Sudoeste 0 -- -- 29
2019-08-01 18:00:00 31.6 15 Sudoeste 32 Sudoeste 0 -- -- 26
2019-08-01 17:00:00 31.1 9 Sudoeste 29 Sudoeste 0 -- -- 27
2019-08-01 16:00:00 31 8 Oeste 24 Sudoeste 0 -- -- 29
2019-08-01 15:00:00 30.6 6 Sudoeste 26 Noroeste 0 -- -- 33
2019-08-01 14:00:00 29.9 12 Noroeste 32 Noroeste 0 -- -- 38
2019-08-01 13:00:00 29.7 10 Sudeste 30 Sudeste 0 -- -- 36
2019-08-01 12:00:00 26.9 12 Sudeste 25 Sudeste 0 -- -- 43
2019-08-01 11:00:00 23.8 12 Sudeste 26 Sudeste 0 -- -- 48
2019-08-01 10:00:00 20.9 10 Sur 37 Sur 0 -- -- 50
2019-08-01 09:00:00 19.7 18 Sur 35 Sur 0 -- -- 53
2019-08-01 08:00:00 17 13 Sur 28 Sur 0 -- -- 61
2019-08-01 07:00:00 14.1 13 Sudeste 19 Sudeste 0 -- -- 78
2019-08-01 06:00:00 14.5 2 Este 15 Sudeste 0 -- -- 79
2019-08-01 05:00:00 15.9 9 Sudeste 15 Sur 0 -- -- 75
2019-08-01 04:00:00 16.1 9 Sur 20 Sur 0 -- -- 83
2019-08-01 03:00:00 16.7 10 Sudoeste 16 Sudoeste 0 -- -- 84
2019-08-01 02:00:00 17.4 9 Oeste 21 Sudoeste 0 -- -- 81
2019-08-01 01:00:00 18.1 10 Sudoeste 20 Sur 0 -- -- 79
2019-08-01 00:00:00 18.6 5 Sur 16 Sudoeste 0 -- -- 75
2019-07-31 23:00:00 19.6 9 Sur 17 Sudoeste 0 -- -- 72
2019-07-31 22:00:00 20.3 6 Sur 13 Sudeste 0 -- -- 70
2019-07-31 21:00:00 21.8 8 Sudeste 24 Sur 0 -- -- 65
2019-07-31 20:00:00 23.1 12 Sur 32 Sudeste 0 -- -- 60
2019-07-31 19:00:00 23.2 17 Sudeste 41 Sudeste 0 -- -- 62
2019-07-31 18:00:00 25.4 21 Sudeste 39 Sudeste 0 -- -- 54
2019-07-31 17:00:00 26.7 21 Sudeste 40 Sudeste 0 -- -- 48
2019-07-31 16:00:00 27 19 Sudeste 39 Sudeste 0 -- -- 45
2019-07-31 15:00:00 26.6 24 Sudeste 39 Sudeste 0 -- -- 43
2019-07-31 14:00:00 25.8 19 Sudeste 37 Sudeste 0 -- -- 44
2019-07-31 13:00:00 25.5 18 Sudeste 31 Sudeste 0 -- -- 42
2019-07-31 12:00:00 24.2 11 Sudeste 26 Sudeste 0 -- -- 47
2019-07-31 11:00:00 20.5 8 Norte 15 Norte 0 -- -- 57
2019-07-31 10:00:00 18.1 2 Nordeste 8 Sudeste 0 -- -- 59
2019-07-31 09:00:00 14.4 3 Nordeste 8 Sudeste 0 -- -- 67
2019-07-31 08:00:00 11.8 2 Sudeste 6 Sudeste 0 -- -- 74
2019-07-31 07:00:00 11.1 0 Calma 8 Sudeste 0 -- -- 74
2019-07-31 06:00:00 11.9 0 Calma 4 Este 0 -- -- 71
2019-07-31 05:00:00 12.6 0 Calma 7 Noroeste 0 -- -- 68
2019-07-31 04:00:00 13.5 3 Noroeste 7 Noroeste 0 -- -- 65
2019-07-31 03:00:00 14.7 0 Calma 8 Sudoeste 0 -- -- 61
2019-07-31 02:00:00 15.9 3 Sur 7 Norte 0 -- -- 57
2019-07-31 01:00:00 16.9 4 Norte 18 Noroeste 0 -- -- 54
2019-07-31 00:00:00 17.3 10 Norte 18 Noroeste 0 -- -- 53
2019-07-30 23:00:00 18.1 9 Norte 23 Noroeste 0 -- -- 50
2019-07-30 22:00:00 20.3 10 Noroeste 26 Norte 0 -- -- 45
2019-07-30 21:00:00 22.6 9 Norte 26 Noroeste 0 -- -- 43
2019-07-30 20:00:00 25 14 Norte 27 Norte 0 -- -- 39
2019-07-30 19:00:00 26.3 15 Norte 27 Norte 0 -- -- 37
2019-07-30 18:00:00 28 5 Nordeste 21 Noroeste 0 -- -- 33
2019-07-30 17:00:00 27 14 Noroeste 22 Noroeste 0 -- -- 34
2019-07-30 16:00:00 26 10 Noroeste 22 Noroeste 0 -- -- 36
2019-07-30 15:00:00 25.4 7 Nordeste 22 Norte 0 -- -- 37
2019-07-30 14:00:00 23.6 9 Norte 22 Norte 0 -- -- 40
2019-07-30 13:00:00 22.1 10 Norte 20 Nordeste 0 -- -- 41
2019-07-30 12:00:00 21.4 9 Nordeste 20 Norte 0 -- -- 49
2019-07-30 11:00:00 20.8 9 Nordeste 21 Norte 0 -- -- 48
2019-07-30 10:00:00 18.7 13 Norte 22 Norte 0 -- -- 44
2019-07-30 09:00:00 14.3 4 Sudeste 7 Sudeste 0 -- -- 54
2019-07-30 08:00:00 10.7 4 Sudeste 6 Sudeste 0 -- -- 62
2019-07-30 07:00:00 10.4 3 Noroeste 9 Noroeste 0 -- -- 62
2019-07-30 06:00:00 11.5 0 Calma 11 Oeste 0 -- -- 57
2019-07-30 05:00:00 12.3 3 Sur 8 Noroeste 0 -- -- 56
2019-07-30 04:00:00 13.9 0 Calma 8 Noroeste 0 -- -- 48
2019-07-30 03:00:00 15.3 4 Sur 9 Sudoeste 0 -- -- 45
2019-07-30 02:00:00 17.1 0 Calma 10 Sudoeste 0 -- -- 39
2019-07-30 01:00:00 19.1 4 Sudoeste 15 Sudoeste 0 -- -- 35
2019-07-30 00:00:00 20.9 14 Sudoeste 23 Sudoeste 0 -- -- 30
2019-07-29 23:00:00 22.4 10 Sudoeste 14 Sur 0 -- -- 33
2019-07-29 22:00:00 23.8 8 Sudoeste 12 Sudoeste 0 -- -- 37
2019-07-29 21:00:00 25.6 9 Sudoeste 23 Oeste 0 -- -- 33
2019-07-29 20:00:00 28.8 7 Oeste 22 Sudoeste 0 -- -- 29
2019-07-29 19:00:00 28.7 8 Sudoeste 25 Sur 0 -- -- 29
2019-07-29 18:00:00 30.2 11 Sur 26 Sur 0 -- -- 28
2019-07-29 17:00:00 30.1 12 Sur 28 Oeste 0 -- -- 29
2019-07-29 16:00:00 29.7 14 Oeste 32 Sudoeste 0 -- -- 29
2019-07-29 15:00:00 29.7 11 Sudoeste 30 Sudoeste 0 -- -- 29
2019-07-29 14:00:00 28.6 11 Sudeste 30 Sur 0 -- -- 31
2019-07-29 13:00:00 27.7 7 Sudoeste 24 Sudoeste 0 -- -- 32
2019-07-29 12:00:00 26.4 14 Sur 30 Sudeste 0 -- -- 34
2019-07-29 11:00:00 25 9 Este 17 Sudeste 0 -- -- 37
2019-07-29 10:00:00 21.3 8 Sur 19 Sudeste 0 -- -- 42
2019-07-29 09:00:00 15.4 9 Este 26 Este 0 -- -- 54
2019-07-29 08:00:00 12.1 14 Sudeste 25 Sudeste 0 -- -- 59
2019-07-29 07:00:00 11.5 12 Sudeste 24 Este 0 -- -- 59
2019-07-29 06:00:00 12.3 13 Este 23 Este 0 -- -- 55
2019-07-29 05:00:00 12.1 8 Sudeste 19 Sudeste 0 -- -- 56
2019-07-29 04:00:00 12.2 4 Sudeste 15 Sudeste 0 -- -- 57
2019-07-29 03:00:00 12.5 3 Sudeste 9 Sudeste 0 -- -- 58
2019-07-29 02:00:00 13.7 4 Sudeste 8 Sudeste 0 -- -- 57
2019-07-29 01:00:00 14.7 0 Calma 6 Noroeste 0 -- -- 57
2019-07-29 00:00:00 15.9 3 Oeste 9 Norte 0 -- -- 52
2019-07-28 23:00:00 17.4 5 Noroeste 9 Noroeste 0 -- -- 46
2019-07-28 22:00:00 19.8 3 Sudoeste 9 Oeste 0 -- -- 43
2019-07-28 21:00:00 23 7 Noroeste 19 Noroeste 0 -- -- 35
2019-07-28 20:00:00 25.6 10 Norte 17 Noroeste 0 -- -- 31
2019-07-28 19:00:00 25.8 8 Norte 18 Norte 0 -- -- 33
2019-07-28 18:00:00 25.9 4 Noroeste 26 Norte 0 -- -- 34
2019-07-28 17:00:00 25.6 8 Nordeste 27 Sudeste 0 -- -- 35
2019-07-28 16:00:00 24.4 10 Norte 18 Norte 0 -- -- 37
2019-07-28 15:00:00 23.4 9 Nordeste 21 Norte 0 -- -- 40
2019-07-28 14:00:00 22.5 10 Este 19 Este 0 -- -- 42
2019-07-28 13:00:00 20.5 7 Norte 21 Norte 0 -- -- 45
2019-07-28 12:00:00 19.1 12 Norte 25 Norte 0 -- -- 50
2019-07-28 11:00:00 17.5 10 Nordeste 21 Norte 0 -- -- 54
2019-07-28 10:00:00 15.3 10 Norte 18 Nordeste 0 -- -- 64
2019-07-28 09:00:00 12.5 5 Sur 10 Norte 0 -- -- 76
2019-07-28 08:00:00 9.5 7 Norte 12 Norte 0 -- -- 86
2019-07-28 07:00:00 9.3 4 Noroeste 9 Noroeste 0 -- -- 86
2019-07-28 06:00:00 9.5 3 Sur 11 Noroeste 0 -- -- 85
2019-07-28 05:00:00 10.3 4 Noroeste 15 Noroeste 0 -- -- 82
2019-07-28 04:00:00 11.4 3 Oeste 10 Sudoeste 0 -- -- 78
2019-07-28 03:00:00 12.7 10 Sudoeste 26 Norte 0 -- -- 74
2019-07-28 02:00:00 13.3 6 Noroeste 14 Oeste 0 -- -- 74
2019-07-28 01:00:00 13.8 10 Noroeste 19 Noroeste 0 -- -- 78
2019-07-28 00:00:00 15 14 Noroeste 35 Noroeste 0 -- -- 72
2019-07-27 23:00:00 15.6 18 Noroeste 28 Noroeste 0 -- -- 73
2019-07-26 12:00:00 -- -- -- -- -- -- -- -- --
2019-07-26 11:00:00 24.5 6 Sudeste 14 Sudeste 0 -- -- 43
2019-07-26 10:00:00 20.7 4 Sur 14 Sudeste 0 -- -- 54
2019-07-26 09:00:00 20.2 3 Noroeste 19 Sur 0 -- -- 52
2019-07-26 08:00:00 19.5 6 Sur 15 Sur 0 -- -- 51
2019-07-26 07:00:00 17.5 0 Calma 12 Sur 0 -- -- 60
2019-07-26 06:00:00 17.5 2 Sudeste 8 Sur 0 -- -- 60
2019-07-26 05:00:00 18.6 0 Calma 10 Sur 0 -- -- 55
2019-07-26 04:00:00 19.7 4 Sur 10 Sudoeste 0 -- -- 54
2019-07-26 03:00:00 20.6 4 Sur 8 Sur 0 -- -- 51
2019-07-26 02:00:00 22.5 4 Sur 19 Sudoeste 0 -- -- 45
2019-07-26 01:00:00 22.7 3 Sudeste 25 Sudeste 0 -- -- 45
2019-07-26 00:00:00 24.5 11 Sur 35 Sur 0 -- -- 39
2019-07-25 23:00:00 24.8 19 Sudoeste 33 Sudoeste 0 -- -- 43
2019-07-25 22:00:00 25.7 23 Sur 36 Sur 0 -- -- 43
2019-07-25 21:00:00 27.4 20 Sudeste 43 Sudeste 0 -- -- 39
2019-07-25 20:00:00 29.9 22 Sudeste 40 Sudeste 0 -- -- 35
2019-07-25 19:00:00 31.2 12 Sudoeste 30 Sur 0 -- -- 24
2019-07-25 18:00:00 32.3 17 Sur 39 Sur 0 -- -- 25
2019-07-25 17:00:00 32.6 15 Sur 39 Sudeste 0 -- -- 27
2019-07-25 16:00:00 32.3 20 Sudeste 41 Sudeste 0 -- -- 26
2019-07-25 15:00:00 33 9 Sur 28 Sur 0 -- -- 26
2019-07-25 14:00:00 32.1 15 Sudeste 30 Sudeste 0 -- -- 29
2019-07-25 13:00:00 31 14 Sur 31 Sur 0 -- -- 31
2019-07-25 12:00:00 30.2 17 Sudeste 29 Sudeste 0 -- -- 34
2019-07-25 11:00:00 27.9 11 Sur 27 Sur 0 -- -- 36
2019-07-25 10:00:00 24.9 16 Sur 29 Sur 0 -- -- 37
2019-07-25 09:00:00 23.2 18 Sur 29 Sur 0 -- -- 39
2019-07-25 08:00:00 21 13 Sur 22 Sudoeste 0 -- -- 42
2019-07-25 07:00:00 20.5 12 Sur 21 Sudoeste 0 -- -- 41
2019-07-25 06:00:00 20.6 9 Sur 20 Sudoeste 0 -- -- 41
2019-07-25 05:00:00 20.9 13 Sudoeste 21 Sudoeste 0 -- -- 42
2019-07-25 04:00:00 21.4 15 Sudoeste 24 Sur 0 -- -- 43
2019-07-25 03:00:00 19.3 4 Sur 9 Sur 0 -- -- 50
2019-07-25 02:00:00 20.6 4 Sur 14 Sudoeste 0 -- -- 45
2019-07-25 01:00:00 22.9 10 Sudoeste 22 Sudoeste 0 -- -- 39
2019-07-25 00:00:00 22.6 6 Oeste 18 Sur 0 -- -- 39
2019-07-24 23:00:00 24.9 7 Sudoeste 28 Sudeste 0 -- -- 35
2019-07-24 22:00:00 26.5 22 Sur 36 Sur 0 -- -- 34
2019-07-24 21:00:00 28.3 18 Sudeste 36 Sudeste 0 -- -- 31
2019-07-24 20:00:00 30.1 19 Sudeste 38 Sudeste 0 -- -- 30
2019-07-24 19:00:00 31.6 19 Sudeste 41 Sudeste 0 -- -- 25
2019-07-24 18:00:00 32.3 20 Sudeste 33 Sudeste 0 -- -- 25
2019-07-24 17:00:00 32.3 14 Sudeste 35 Sur 0 -- -- 25
2019-07-24 16:00:00 33 16 Sudeste 37 Sur 0 -- -- 23
2019-07-24 15:00:00 32.9 16 Sudeste 32 Sudeste 0 -- -- 24
2019-07-24 14:00:00 32.1 16 Sudeste 37 Sudeste 0 -- -- 26
2019-07-24 13:00:00 31.3 16 Sudeste 33 Sudeste 0 -- -- 26
2019-07-24 12:00:00 30.5 16 Sudeste 26 Sudeste 0 -- -- 28
2019-07-24 11:00:00 26.8 5 Sudeste 14 Sudoeste 0 -- -- 40
2019-07-24 10:00:00 20.9 7 Sudeste 15 Este 0 -- -- 55
2019-07-24 09:00:00 19.7 6 Sudeste 16 Este 0 -- -- 58
2019-07-24 08:00:00 19 5 Sur 13 Sudeste 0 -- -- 59
2019-07-24 07:00:00 18.6 2 Sudoeste 8 Sur 0 -- -- 60
2019-07-24 06:00:00 18.4 5 Oeste 15 Sudeste 0 -- -- 59
2019-07-24 05:00:00 20.2 8 Sudeste 16 Este 0 -- -- 52
2019-07-24 04:00:00 21 5 Este 17 Sudoeste 0 -- -- 50
2019-07-24 03:00:00 22.3 6 Sur 20 Sudoeste 0 -- -- 44
2019-07-24 02:00:00 22.3 13 Sudoeste 22 Sudoeste 0 -- -- 43
2019-07-24 01:00:00 22.5 9 Sur 17 Sur 0 -- -- 43
2019-07-24 00:00:00 23.5 6 Sur 22 Sur 0 -- -- 40